Andrews, Indiana
Current Conditions -  °F | °C
As of 12:15 PM on Thursday 27 Nov 2014 (Local Time) from KHHG Reporting Station
Light Snow Light Snow  
Wind Chill: 23°   Ceiling: 900
Heat Index: 31°   Visibility: 3mi
Dew Point: 28°   Wind: 8mph
Humidity: 90%   Direction: 280°W
Pressure: 30.24"   Gusts: 17mph
Location:  40.86°N, 85.6°W
Report Text: KHHG 271715Z AUTO 28007G15KT 3SM -SN OVC009 M01/M02 A3024 RMK AO2 T10061021
Loading
Personal Weather Stations






























Interactive Weather Map New forecast layout! Learn more

10-Day Weather Forecast

Advertisements
Track Severe Weather on mobile